»·PEaware :: N717TS CYZP-CZBB

N717TS :: CYZP-CZBB

FLIGHT INFORMATION

Flight Status: Arrived
Operator: Privately registered:
United States
More flights under this callsign
Pilot: Ty S. (2873)
Aircraft: ECLIPSE 500
(EA50)
More flights by this aircraft type
Origin: CYZP Sandspit
Canada
Destination: CZBB Boundary Bay
Canada
More flights between these airports :: More routes between these airports
Route:
File this flight plan on PilotEdge
Remarks:
Altitude:
(Current/Filed)
0ft
Speed:
(Current/Filed)
0kts
Departed: 05-Oct-18 11:23 AM
Arrived: 05-Oct-18 12:42 PM
Distance/Time
Traveled:
415nm/1:19
Distance/Time
To Go:
Arrived

Flight Plot

Page will automatically refresh every two minutes.

Flight plan parsing failed; only flown route is shown


Map Options




Map Legend


Flown Route
Filed Route
Departure Airport
Arrival Airport
Navaid (VOR, NDB)
Fix

Horizontal Profiles

Position Reports

Time Latitude Longitude Heading Altitude Ground
Speed
05-Oct-18 11:21 53.253720 -131.816659 144 23ft 0kts
05-Oct-18 11:22 53.253719 -131.816659 144 23ft 0kts
05-Oct-18 11:23 53.254267 -131.814387 72 23ft 14kts
05-Oct-18 11:24 53.249710 -131.808532 145 23ft 19kts
05-Oct-18 11:25 53.250932 -131.809720 323 23ft 72kts
05-Oct-18 11:26 53.282648 -131.845492 341 1660ft 187kts
05-Oct-18 11:27 53.292627 -131.786962 158 4664ft 215kts
05-Oct-18 11:28 53.235258 -131.754111 162 7628ft 225kts
05-Oct-18 11:29 53.178558 -131.705742 145 10361ft 238kts
05-Oct-18 11:30 53.127316 -131.632947 136 12950ft 250kts
05-Oct-18 11:31 53.077337 -131.547682 132 15220ft 265kts
05-Oct-18 11:32 53.026824 -131.455773 130 17323ft 276kts
05-Oct-18 11:33 52.974733 -131.359085 128 19258ft 286kts
05-Oct-18 11:34 52.921323 -131.259430 129 20803ft 295kts
05-Oct-18 11:35 52.866029 -131.156506 129 22144ft 305kts
05-Oct-18 11:36 52.809117 -131.051013 129 23379ft 313kts
05-Oct-18 11:37 52.750616 -130.943071 129 24591ft 319kts
05-Oct-18 11:38 52.690975 -130.833485 129 25705ft 324kts
05-Oct-18 11:39 52.630139 -130.722180 130 26693ft 331kts
05-Oct-18 11:40 52.567981 -130.608981 130 27584ft 337kts
05-Oct-18 11:41 52.504521 -130.493952 130 28408ft 343kts
05-Oct-18 11:42 52.440083 -130.377696 130 29170ft 348kts
05-Oct-18 11:43 52.374577 -130.260064 132 29858ft 353kts
05-Oct-18 11:44 52.308006 -130.141106 132 30495ft 358kts
05-Oct-18 11:45 52.240303 -130.020703 132 31090ft 362kts
05-Oct-18 11:46 52.171888 -129.899624 132 31642ft 366kts
05-Oct-18 11:47 52.102867 -129.778070 133 32153ft 369kts
05-Oct-18 11:48 52.032942 -129.655526 133 32634ft 373kts
05-Oct-18 11:49 51.962182 -129.532134 133 33083ft 376kts
05-Oct-18 11:50 51.890975 -129.408539 134 33817ft 370kts
05-Oct-18 11:51 51.821359 -129.288378 135 34419ft 370kts
05-Oct-18 11:52 51.750975 -129.167481 135 34872ft 373kts
05-Oct-18 11:53 51.679232 -129.044794 135 35338ft 380kts
05-Oct-18 11:54 51.606712 -128.921398 135 35834ft 384kts
05-Oct-18 11:55 51.533161 -128.796916 135 36338ft 386kts
05-Oct-18 11:56 51.459110 -128.672201 135 36849ft 386kts
05-Oct-18 11:57 51.385289 -128.548482 135 37364ft 386kts
05-Oct-18 11:58 51.311175 -128.424890 135 37888ft 385kts
05-Oct-18 11:59 51.238814 -128.304804 136 38391ft 384kts
05-Oct-18 12:00 51.164964 -128.182862 136 38888ft 383kts
05-Oct-18 12:01 51.091339 -128.061879 136 39391ft 381kts
05-Oct-18 12:02 51.017796 -127.941652 136 39904ft 378kts
05-Oct-18 12:03 50.945077 -127.823361 135 40421ft 375kts
05-Oct-18 12:04 50.873654 -127.707679 135 40927ft 372kts
05-Oct-18 12:05 50.801160 -127.590743 135 41020ft 376kts
05-Oct-18 12:06 50.740125 -127.492762 135 41021ft 378kts
05-Oct-18 12:07 50.667725 -127.339509 120 41020ft 381kts
05-Oct-18 12:08 50.623129 -127.219213 120 41018ft 382kts
05-Oct-18 12:09 50.561007 -127.051079 120 41019ft 383kts
05-Oct-18 12:10 50.507444 -126.906892 121 41020ft 384kts
05-Oct-18 12:11 50.462771 -126.787255 121 41021ft 384kts
05-Oct-18 12:12 50.399668 -126.619099 121 41022ft 385kts
05-Oct-18 12:13 50.354401 -126.499123 121 41020ft 385kts
05-Oct-18 12:14 50.300084 -126.355917 121 41047ft 385kts
05-Oct-18 12:15 50.243910 -126.208635 121 39628ft 429kts
05-Oct-18 12:16 50.180352 -126.042975 121 37657ft 461kts
05-Oct-18 12:17 50.114318 -125.871962 121 35681ft 465kts
05-Oct-18 12:18 50.047706 -125.700576 121 33700ft 460kts
05-Oct-18 12:19 49.982908 -125.534873 122 31725ft 441kts
05-Oct-18 12:20 49.920376 -125.376015 122 29746ft 423kts
05-Oct-18 12:21 49.862490 -125.229840 123 27817ft 406kts
05-Oct-18 12:22 49.804999 -125.085457 123 25824ft 389kts
05-Oct-18 12:23 49.751112 -124.948822 120 23865ft 374kts
05-Oct-18 12:24 49.702911 -124.811311 120 21878ft 359kts
05-Oct-18 12:25 49.656442 -124.678936 120 19886ft 345kts
05-Oct-18 12:26 49.611549 -124.551570 120 17892ft 332kts
05-Oct-18 12:27 49.568370 -124.429629 120 15904ft 320kts
05-Oct-18 12:28 49.526884 -124.312999 120 13923ft 308kts
05-Oct-18 12:29 49.485471 -124.203796 122 12593ft 301kts
05-Oct-18 12:30 49.443627 -124.093816 121 11589ft 295kts
05-Oct-18 12:31 49.402740 -123.986577 121 10587ft 288kts
05-Oct-18 12:32 49.362592 -123.881731 121 9384ft 282kts
05-Oct-18 12:33 49.322520 -123.780677 127 8182ft 274kts
05-Oct-18 12:34 49.275699 -123.689658 129 6976ft 269kts
05-Oct-18 12:35 49.230307 -123.601449 128 5781ft 264kts
05-Oct-18 12:36 49.185781 -123.514004 127 4576ft 259kts
05-Oct-18 12:37 49.142088 -123.427933 126 3371ft 254kts
05-Oct-18 12:38 49.099429 -123.343805 126 2168ft 244kts
05-Oct-18 12:39 49.079048 -123.269792 91 2001ft 177kts
05-Oct-18 12:40 49.078431 -123.194250 90 2001ft 177kts
05-Oct-18 12:41 49.078256 -123.130406 90 1426ft 133kts
05-Oct-18 12:42 49.078212 -123.077779 89 763ft 113kts
05-Oct-18 12:43 49.077959 -123.033372 88 212ft 96kts
05-Oct-18 12:44 49.077946 -123.003554 89 5ft 20kts
05-Oct-18 12:45 49.078112 -122.996053 37 5ft 14kts
05-Oct-18 12:46 49.079438 -123.000177 271 5ft 15kts
05-Oct-18 12:47 49.079657 -123.002205 184 5ft 0kts
05-Oct-18 12:48 49.079657 -123.002205 184 5ft 0kts
05-Oct-18 12:49 49.079657 -123.002205 184 5ft 0kts
05-Oct-18 12:50 49.079657 -123.002205 184 5ft 0kts
05-Oct-18 12:51 49.079613 -123.002223 193 5ft 4kts

Navigation Log

Ident Type
Flight plan parsing failed, navigation log unavailable